createdAt,value
2022-11-20T20:22:32.693Z,531.79
2022-11-20T20:24:44.174Z,551.06
2022-11-20T20:26:52.352Z,535.61
2022-11-20T20:29:02.739Z,552.03
2022-11-20T20:31:12.462Z,515.76
2022-11-20T20:33:21.651Z,574.86
2022-11-20T20:35:29.748Z,506.07
2022-11-20T20:47:01.146Z,530.43
2022-11-20T20:49:07.978Z,526.61
2022-11-20T20:51:14.735Z,537.18
2022-11-20T20:53:20.818Z,468.67
2022-11-20T20:55:34.032Z,525.53
2022-11-20T20:57:40.597Z,452.95
2022-11-20T20:59:48.994Z,498.92
2022-11-20T21:01:59.853Z,346.10
2022-11-20T21:04:05.845Z,481.21
2022-11-20T21:06:14.764Z,509.23
2022-11-20T21:08:25.584Z,541.70
2022-11-20T21:10:31.497Z,486.14
2022-11-20T21:12:38.825Z,424.42
2022-11-20T21:14:48.202Z,403.36
2022-11-20T21:16:54.257Z,398.96
2022-11-20T21:19:00.258Z,448.35
2022-11-20T21:21:32.369Z,473.43
2022-11-20T21:23:39.969Z,466.08
2022-11-20T21:25:46.040Z,492.98
2022-11-20T21:27:53.707Z,492.92
2022-11-20T21:30:08.881Z,442.40
2022-11-20T21:32:16.099Z,439.88
2022-11-20T21:34:26.094Z,469.07
2022-11-20T21:36:34.970Z,490.60
2022-11-20T21:38:40.704Z,449.05
2022-11-20T21:40:47.428Z,472.09
2022-11-20T21:42:53.329Z,456.11
2022-11-20T21:45:02.712Z,445.98
2022-11-20T21:47:11.624Z,474.00
2022-11-20T21:49:18.492Z,490.71
2022-11-20T21:51:33.268Z,466.79
2022-11-20T21:53:40.754Z,490.48
2022-11-20T21:55:46.706Z,504.04
2022-11-20T21:57:54.825Z,504.25
2022-11-20T22:00:04.112Z,465.57
2022-11-20T22:02:15.928Z,471.77
2022-11-20T22:04:23.099Z,499.50
2022-11-20T22:06:35.890Z,451.00
2022-11-20T22:08:42.562Z,454.03
2022-11-20T22:11:00.853Z,434.79
2022-11-20T22:13:20.111Z,419.66
2022-11-20T22:15:53.567Z,456.72
2022-11-20T22:18:06.853Z,459.63
2022-11-20T22:20:14.525Z,449.18
2022-11-20T22:22:20.325Z,449.01
2022-11-20T22:24:26.897Z,444.53
2022-11-20T22:26:40.709Z,453.54
2022-11-20T22:28:50.626Z,429.87
2022-11-20T22:31:01.750Z,424.09
2022-11-20T22:33:17.771Z,444.51
2022-11-20T22:35:29.486Z,426.52
2022-11-20T22:37:35.299Z,415.21
2022-11-20T22:39:42.024Z,404.37
2022-11-20T22:41:47.839Z,413.20
2022-11-20T22:43:58.318Z,420.24
2022-11-20T22:46:14.737Z,419.63
2022-11-20T22:48:20.480Z,390.19
2022-11-20T22:50:26.278Z,382.44
2022-11-20T22:52:32.982Z,397.52
2022-11-20T22:54:38.908Z,395.36
2022-11-20T22:56:45.815Z,396.49
2022-11-20T22:58:55.519Z,407.99
2022-11-20T23:01:17.275Z,388.14
2022-11-20T23:03:23.173Z,405.04
2022-11-20T23:05:29.899Z,398.76
2022-11-20T23:07:40.726Z,421.18
2022-11-20T23:09:50.153Z,417.26
2022-11-20T23:11:56.820Z,413.56
2022-11-20T23:14:06.610Z,405.62
2022-11-20T23:16:18.149Z,403.52
2022-11-20T23:18:32.890Z,404.21
2022-11-20T23:20:40.677Z,396.79
2022-11-20T23:22:46.521Z,406.22
2022-11-20T23:24:53.211Z,389.98
2022-11-20T23:26:58.940Z,383.38
2022-11-20T23:29:05.915Z,375.59
2022-11-20T23:31:17.544Z,380.10
2022-11-20T23:33:23.255Z,366.40
2022-11-20T23:35:28.962Z,376.97
2022-11-20T23:37:36.134Z,401.19
2022-11-20T23:39:41.889Z,411.70
2022-11-20T23:41:47.662Z,416.60
2022-11-20T23:43:55.057Z,418.06
2022-11-20T23:46:06.230Z,430.51
2022-11-20T23:48:15.802Z,397.60
2022-11-20T23:50:22.283Z,369.67
2022-11-20T23:52:28.005Z,383.87
2022-11-20T23:54:33.667Z,368.45
2022-11-20T23:56:40.202Z,355.07
2022-11-20T23:58:46.758Z,365.99
